createdAt,value
2022-09-23T00:04:56.281Z,244.4878
2022-09-23T00:09:57.853Z,234.56604
2022-09-23T00:14:59.322Z,244.4878
2022-09-23T00:20:01.092Z,247.44828
2022-09-23T00:25:02.663Z,271.65957
2022-09-23T00:30:04.125Z,252
2022-09-23T00:35:05.845Z,250.46766
2022-09-23T00:40:07.634Z,245.96078
2022-09-23T00:45:09.399Z,245.96078
2022-09-23T00:50:11.456Z,238.73684
2022-09-23T00:55:13.213Z,261.52577
2022-09-23T01:00:15.174Z,256.69036
2022-09-23T01:05:16.864Z,255.11111
2022-09-23T01:10:18.444Z,278.78261
2022-09-23T01:15:19.910Z,259.89744
2022-09-23T01:20:21.563Z,253.54774
2022-09-23T01:25:23.107Z,248.9505
2022-09-23T01:30:24.745Z,269.92593
2022-09-23T01:35:26.296Z,256.69036
2022-09-23T01:40:27.824Z,253.54774
2022-09-23T01:45:29.289Z,261.52577
2022-09-23T01:50:31.131Z,263.17098
2022-09-23T01:55:32.844Z,261.52577
2022-09-23T02:00:34.599Z,268.21053
2022-09-23T02:05:36.125Z,238.73684
2022-09-23T02:10:37.604Z,264.83333
2022-09-23T02:15:39.056Z,225.27854
2022-09-23T02:20:40.817Z,173.85075
2022-09-23T02:25:42.344Z,153.52381
2022-09-23T02:30:43.813Z,138.93671
2022-09-23T02:35:45.262Z,132.3792
2022-09-23T02:40:47.043Z,124.11696
2022-09-23T02:45:48.687Z,116.06704
2022-09-23T02:50:50.581Z,99.94937
2022-09-23T02:55:52.057Z,91.01671
2022-09-23T03:00:53.638Z,85.6092
2022-09-23T03:05:55.144Z,82.42697
2022-09-23T03:10:56.622Z,80.28319
2022-09-23T03:15:58.043Z,78.49782
2022-09-23T03:20:59.731Z,76.18884
2022-09-23T03:26:01.284Z,76.47312
2022-09-23T03:31:03.039Z,73.41176
2022-09-23T03:36:04.761Z,71.80083
2022-09-23T03:41:06.488Z,72.87029
2022-09-23T03:46:08.302Z,73.14046
2022-09-23T03:51:10.383Z,72.06653
2022-09-23T03:56:12.214Z,73.14046
2022-09-23T04:01:14.022Z,74.50847
2022-09-23T04:06:15.894Z,75.62393
2022-09-23T04:11:17.367Z,78.20479
2022-09-23T04:16:19.075Z,79.08772
2022-09-23T04:21:20.798Z,79.98234
2022-09-23T04:26:22.388Z,80.58537
2022-09-23T04:31:23.992Z,80.88889
2022-09-23T04:36:25.799Z,81.5
2022-09-23T04:41:27.294Z,84.63927
2022-09-23T04:46:29.055Z,85.6092
2022-09-23T04:51:30.718Z,88.2623
2022-09-23T04:56:32.371Z,88.2623
2022-09-23T05:01:34.373Z,97.23383
2022-09-23T05:06:36.325Z,95.72414
2022-09-23T05:11:38.083Z,96.47525
2022-09-23T05:16:39.851Z,100.34518
2022-09-23T05:21:41.978Z,100.34518
2022-09-23T05:26:43.676Z,101.54476
2022-09-23T05:31:45.503Z,98.77387
2022-09-23T05:36:47.330Z,101.14286
2022-09-23T05:41:49.116Z,104
2022-09-23T05:46:51.018Z,103.58549
2022-09-23T05:51:53.027Z,114.16575
2022-09-23T05:56:54.752Z,127.8806
2022-09-23T06:01:56.703Z,126.78932
2022-09-23T06:07:03.098Z,133.53846
2022-09-23T06:12:05.379Z,147.30033
2022-09-23T06:17:07.143Z,160.90141
2022-09-23T06:22:09.102Z,157.14879
2022-09-23T06:27:10.816Z,149.33333
2022-09-23T06:32:12.513Z,156.41379
2022-09-23T06:37:19.426Z,164.78853
2022-09-23T06:42:21.853Z,161.66784
2022-09-23T06:47:23.283Z,159.38462
2022-09-23T06:52:25.656Z,165.58273
2022-09-23T06:57:27.093Z,173.85075
2022-09-23T07:02:28.631Z,182.75969
2022-09-23T07:07:30.414Z,198.54545
2022-09-23T07:12:32.166Z,189.41833
2022-09-23T07:17:33.734Z,207.24786
2022-09-23T07:22:36.256Z,215.36564
2022-09-23T07:27:37.709Z,264.83333
2022-09-23T07:32:47.606Z,371.77778
2022-09-23T07:37:50.556Z,421.51938
2022-09-23T07:42:52.332Z,733.74359
2022-09-23T07:47:53.877Z,1064
2022-09-23T07:52:55.506Z,1931.09677
2022-09-23T07:57:57.001Z,1608.86486
2022-09-23T08:02:58.587Z,1484
2022-09-23T08:08:00.246Z,1376.55814
2022-09-23T08:13:01.797Z,1283.13043
2022-09-23T08:18:03.199Z,1376.55814
2022-09-23T08:23:05.635Z,1410.66667
2022-09-23T08:28:07.169Z,1312.88889
2022-09-23T08:33:08.933Z,1344
2022-09-23T08:38:10.460Z,1523.48718
2022-09-23T08:43:12.189Z,1446.43902
2022-09-23T08:48:13.635Z,1755.76471
2022-09-23T08:53:16.137Z,1810.66667
2022-09-23T08:58:24.906Z,2510.66667
2022-09-23T09:03:27.321Z,2313.23077
2022-09-23T09:08:29.242Z,2068.13793
2022-09-23T09:13:30.944Z,1755.76471
2022-09-23T09:18:32.672Z,1931.09677
2022-09-23T09:23:34.626Z,1704
2022-09-23T09:28:36.370Z,1283.13043
2022-09-23T09:33:38.102Z,1704
2022-09-23T09:38:39.951Z,2144
2022-09-23T09:43:44.134Z,2744
2022-09-23T09:48:46.170Z,2877.33333
2022-09-23T09:53:48.174Z,1869
2022-09-23T09:58:49.917Z,1810.66667
2022-09-23T10:03:55.553Z,1704
2022-09-23T10:08:59.012Z,1344
2022-09-23T10:14:00.734Z,3366.22222
2022-09-23T10:19:02.492Z,5544
2022-09-23T10:24:05.502Z,4344
2022-09-23T10:29:07.352Z,3567.52941
2022-09-23T10:34:09.166Z,2622.26087
2022-09-23T10:39:10.943Z,2744
2022-09-23T10:44:12.645Z,2877.33333
2022-09-23T10:49:14.404Z,2313.23077
2022-09-23T10:54:16.362Z,3366.22222
2022-09-23T10:59:17.997Z,3366.22222
2022-09-23T11:04:19.517Z,4682.46154
2022-09-23T11:09:21.017Z,4682.46154
2022-09-23T11:14:22.477Z,4050.66667
2022-09-23T11:19:24.068Z,2144
2022-09-23T11:24:26.566Z,2622.26087
2022-09-23T11:29:27.974Z,3024
2022-09-23T11:34:29.398Z,2877.33333
2022-09-23T11:39:30.898Z,5544
2022-09-23T11:44:32.333Z,3794
2022-09-23T11:49:33.781Z,5077.33333
2022-09-23T11:54:35.492Z,5544
2022-09-23T11:59:40.134Z,5544
2022-09-23T12:04:53.379Z,4050.66667
2022-09-23T12:09:58.599Z,4050.66667
2022-09-23T12:15:00.308Z,4344
2022-09-23T12:20:01.930Z,4344
2022-09-23T12:25:04.113Z,4344
2022-09-23T12:30:05.706Z,3794
2022-09-23T12:35:07.285Z,2744
2022-09-23T12:40:08.978Z,3794
2022-09-23T12:45:10.501Z,4682.46154
2022-09-23T12:50:16.646Z,4682.46154
2022-09-23T12:55:19.602Z,4050.66667
2022-09-23T13:00:21.222Z,4682.46154
2022-09-23T13:05:22.725Z,4344
2022-09-23T13:10:24.289Z,3794
2022-09-23T13:15:25.945Z,3794
2022-09-23T13:20:27.407Z,4682.46154
2022-09-23T13:25:29.521Z,5544
2022-09-23T13:30:30.977Z,4344
2022-09-23T13:35:32.532Z,6104
2022-09-23T13:40:34.162Z,6104
2022-09-23T13:45:35.800Z,6104
2022-09-23T13:50:37.601Z,5544
2022-09-23T13:55:39.361Z,5544
2022-09-23T14:00:40.920Z,6104
2022-09-23T14:05:42.589Z,5544
2022-09-23T14:10:44.147Z,8744
2022-09-23T14:15:45.764Z,8744
2022-09-23T14:20:47.512Z,10210.66667
2022-09-23T14:25:49.554Z,4344
2022-09-23T14:30:51.249Z,7644
2022-09-23T14:35:52.969Z,6788.44444
2022-09-23T14:40:54.815Z,5077.33333
2022-09-23T14:45:56.648Z,4682.46154
2022-09-23T14:50:58.466Z,4344
2022-09-23T14:56:01.344Z,2877.33333
2022-09-23T15:01:03.223Z,2408
2022-09-23T15:06:08.457Z,3794
2022-09-23T15:11:10.562Z,2877.33333
2022-09-23T15:16:12.417Z,3024
2022-09-23T15:21:14.244Z,988.0678
2022-09-23T15:26:16.220Z,988.0678
2022-09-23T15:31:18.041Z,921.77778
2022-09-23T15:36:19.554Z,636.13483
2022-09-23T15:41:21.213Z,606.36559
2022-09-23T15:46:22.706Z,606.36559
2022-09-23T15:51:24.306Z,547.92157
2022-09-23T15:56:26.101Z,498.95495
2022-09-23T16:01:27.784Z,393.63504
2022-09-23T16:06:29.297Z,384
2022-09-23T16:11:31.177Z,475.03448
2022-09-23T16:16:32.839Z,436.8
2022-09-23T16:21:34.296Z,542.05825
2022-09-23T16:26:35.961Z,296
2022-09-23T16:31:37.528Z,263.17098
2022-09-23T16:36:39.315Z,209.51724
2022-09-23T16:41:41.109Z,211.82609
2022-09-23T16:46:43.060Z,202.82353
2022-09-23T16:51:44.861Z,159.38462
2022-09-23T16:56:46.799Z,121.01149
2022-09-23T17:01:48.626Z,104.83551
2022-09-23T17:06:50.558Z,116.54902
2022-09-23T17:11:52.406Z,111.3913
2022-09-23T17:16:54.135Z,117.03371
2022-09-23T17:21:55.856Z,116.06704
2022-09-23T17:26:57.867Z,120
2022-09-23T17:31:59.625Z,109.14745
2022-09-23T17:37:01.380Z,101.54476
2022-09-23T17:42:03.337Z,116.06704
2022-09-23T17:47:05.048Z,124.11696
2022-09-23T17:52:06.760Z,139.55556
2022-09-23T17:57:08.703Z,134.71207
2022-09-23T18:02:14.931Z,150.02007
2022-09-23T18:07:17.353Z,113.69697
2022-09-23T18:12:19.215Z,138.93671
2022-09-23T18:17:20.651Z,165.58273
2022-09-23T18:22:22.102Z,144.65147
2022-09-23T18:27:23.994Z,144
2022-09-23T18:32:25.583Z,154.9589
2022-09-23T18:37:27.018Z,149.33333
2022-09-23T18:42:28.780Z,159.38462
2022-09-23T18:47:30.241Z,148.65116
2022-09-23T18:52:31.969Z,144.65147
2022-09-23T18:57:33.943Z,140.80511
2022-09-23T19:02:36.095Z,142.07074
2022-09-23T19:07:37.882Z,142.07074
2022-09-23T19:12:39.682Z,143.35275
2022-09-23T19:17:41.331Z,143.35275
2022-09-23T19:22:43.037Z,137.10345
2022-09-23T19:27:44.893Z,141.4359
2022-09-23T19:32:46.694Z,159.38462
2022-09-23T19:37:48.148Z,184.625
2022-09-23T19:42:50.047Z,169.64103
2022-09-23T19:47:51.701Z,178.22053
2022-09-23T19:52:53.397Z,180.92308
2022-09-23T19:57:55.390Z,172.99628
2022-09-23T20:02:57.089Z,172.99628
2022-09-23T20:07:58.748Z,189.41833
2022-09-23T20:13:00.534Z,196.45902
2022-09-23T20:18:02.277Z,179.1145
2022-09-23T20:23:04.010Z,189.41833
2022-09-23T20:28:05.956Z,210.66667
2022-09-23T20:33:07.587Z,206.12766
2022-09-23T20:38:09.335Z,200.66667
2022-09-23T20:43:11.144Z,196.45902
2022-09-23T20:48:12.988Z,182.75969
2022-09-23T20:53:14.716Z,164.78853
2022-09-23T20:58:16.648Z,145.96721
2022-09-23T21:03:18.353Z,134.71207
2022-09-23T21:08:20.110Z,127.33333
2022-09-23T21:13:21.660Z,125.17647
2022-09-23T21:18:23.131Z,120
2022-09-23T21:23:24.586Z,113.23077
2022-09-23T21:28:26.511Z,110.03774
2022-09-23T21:33:28.040Z,109.14745
2022-09-23T21:38:29.775Z,107.39523
2022-09-23T21:43:31.321Z,109.5914
2022-09-23T21:48:32.761Z,120
2022-09-23T21:53:34.194Z,125.17647
2022-09-23T21:58:36.043Z,124.64516
2022-09-23T22:03:37.577Z,123.59184
2022-09-23T22:08:39.135Z,119
2022-09-23T22:13:40.816Z,115.58774
2022-09-23T22:18:42.550Z,113.23077
2022-09-23T22:23:44.267Z,110.93767
2022-09-23T22:28:46.061Z,108.26667
2022-09-23T22:33:47.529Z,103.17313
2022-09-23T22:38:48.954Z,99.94937
2022-09-23T22:43:50.481Z,100.743
2022-09-23T22:48:51.881Z,104
2022-09-23T22:53:53.341Z,109.5914
2022-09-23T22:58:55.120Z,115.58774
2022-09-23T23:03:56.673Z,121.52161
2022-09-23T23:08:58.160Z,124.64516
2022-09-23T23:13:59.675Z,124.64516
2022-09-23T23:19:01.337Z,125.17647
2022-09-23T23:24:03.084Z,119.49858
2022-09-23T23:29:04.926Z,116.06704
2022-09-23T23:34:11.454Z,113.23077
2022-09-23T23:39:12.926Z,109.5914
2022-09-23T23:44:14.398Z,110.93767
2022-09-23T23:49:15.869Z,111.3913
2022-09-23T23:54:17.450Z,112.76712
2022-09-23T23:59:19.395Z,114.16575
